Terminal Aerodrome Forecast
Issued by NWS

Home | Current Version | Previous Version | Graphics & Text | Print | Product List | Glossary On
Versions: 1 2 3 4 5 6 7 8 9 10 11 12 13 14 15 16 17 18 19 20 21 22 23 24
352
FTUS43 KABR 231720
TAFPIR
TAF
KPIR 231720Z 2318/2418 03016G24KT P6SM -SHRA FEW040 OVC050
     FM232300 36012KT P6SM FEW060 BKN100
     FM240100 01009KT P6SM FEW070
     FM240300 36004KT P6SM SKC
     FM241500 16005KT P6SM FEW250=

USA.gov is the U.S. government's official web portal to all federal, state and local government web resources and services.